Time,TemperatureF,DewpointF,PressureIn,WindDirection,WindDirectionDegrees,WindSpeedMPH,WindSpeedGustMPH,Humidity,HourlyPrecipIn,Conditions,Clouds,dailyrainin,SoftwareType,DateUTC
2013-09-05 00:02:00,58.7,58.7,30.04,SW,224,0.0,0.0,100,0.00,,CLR,0.00,VWS V14.01,2013-09-05 04:02:00,
2013-09-05 00:03:00,58.6,58.6,30.04,SW,224,0.0,0.0,100,0.00,,CLR,0.00,VWS V14.01,2013-09-05 04:03:00,
2013-09-05 00:08:00,58.5,58.5,30.04,SW,224,0.0,0.0,100,0.00,,CLR,0.00,VWS V14.01,2013-09-05 04:08:00,
2013-09-05 00:13:00,58.4,58.4,30.04,SW,224,0.0,0.0,100,0.00,,CLR,0.00,VWS V14.01,2013-09-05 04:13:00,
2013-09-05 00:18:00,58.3,58.3,30.04,SW,224,0.0,0.0,100,0.00,,CLR,0.00,VWS V14.01,2013-09-05 04:18:00,
2013-09-05 00:23:00,58.2,58.2,30.04,SW,224,0.0,0.0,100,0.00,,CLR,0.00,VWS V14.01,2013-09-05 04:23:00,
2013-09-05 00:28:00,58.1,58.1,30.04,SW,224,0.0,0.0,100,0.00,,CLR,0.00,VWS V14.01,2013-09-05 04:28:00,
2013-09-05 00:33:00,58.0,58.0,30.04,SW,224,0.0,0.0,100,0.00,,CLR,0.00,VWS V14.01,2013-09-05 04:33:00,
2013-09-05 00:38:00,58.0,58.0,30.04,SW,224,0.0,0.0,100,0.00,,CLR,0.00,VWS V14.01,2013-09-05 04:38:00,
2013-09-05 00:43:00,57.8,57.8,30.05,SW,224,0.0,0.0,100,0.00,,CLR,0.00,VWS V14.01,2013-09-05 04:43:00,
2013-09-05 00:48:00,57.7,57.7,30.05,SW,224,0.0,0.0,100,0.00,,CLR,0.00,VWS V14.01,2013-09-05 04:48:00,
2013-09-05 00:53:00,57.6,57.6,30.05,SW,224,0.0,0.0,100,0.00,,CLR,0.00,VWS V14.01,2013-09-05 04:53:00,
2013-09-05 00:58:00,57.4,57.4,30.05,SW,224,0.0,0.0,100,0.00,,CLR,0.00,VWS V14.01,2013-09-05 04:58:00,
2013-09-05 01:03:00,57.4,57.4,30.05,SW,224,0.0,0.0,100,0.00,,CLR,0.00,VWS V14.01,2013-09-05 05:03:00,
2013-09-05 01:08:00,57.3,57.3,30.04,SW,224,0.0,0.0,100,0.00,,CLR,0.00,VWS V14.01,2013-09-05 05:08:00,
2013-09-05 01:13:00,57.3,57.3,30.05,SW,224,0.0,0.0,100,0.00,,CLR,0.00,VWS V14.01,2013-09-05 05:13:00,
2013-09-05 01:18:00,57.1,57.1,30.05,SW,224,0.0,0.0,100,0.00,,CLR,0.00,VWS V14.01,2013-09-05 05:18:00,
2013-09-05 01:23:00,57.0,57.0,30.05,SW,224,0.0,0.0,100,0.00,,CLR,0.00,VWS V14.01,2013-09-05 05:23:00,
2013-09-05 01:28:00,57.0,57.0,30.05,SW,224,0.0,0.0,100,0.00,,CLR,0.00,VWS V14.01,2013-09-05 05:28:00,
2013-09-05 01:33:00,57.1,57.1,30.05,SW,224,0.0,0.0,100,0.00,,CLR,0.00,VWS V14.01,2013-09-05 05:33:00,
2013-09-05 01:38:00,57.2,57.2,30.04,SW,224,0.0,0.0,100,0.00,,CLR,0.00,VWS V14.01,2013-09-05 05:38:00,
2013-09-05 01:43:00,57.3,57.3,30.04,SW,224,0.0,0.0,100,0.00,,CLR,0.00,VWS V14.01,2013-09-05 05:43:00,
2013-09-05 01:48:00,57.3,57.3,30.04,SW,224,0.0,0.0,100,0.00,,CLR,0.00,VWS V14.01,2013-09-05 05:48:00,
2013-09-05 01:53:00,57.4,57.4,30.04,SW,224,0.0,0.0,100,0.00,,CLR,0.00,VWS V14.01,2013-09-05 05:53:00,
2013-09-05 01:58:00,57.4,57.4,30.04,SW,224,0.0,0.0,100,0.00,,CLR,0.00,VWS V14.01,2013-09-05 05:58:00,
2013-09-05 02:03:00,57.4,57.4,30.04,SW,224,0.0,0.0,100,0.00,,CLR,0.00,VWS V14.01,2013-09-05 06:03:00,
2013-09-05 02:08:00,57.4,57.4,30.04,SW,224,0.0,0.0,100,0.00,,CLR,0.00,VWS V14.01,2013-09-05 06:08:00,
2013-09-05 02:13:00,57.8,57.8,30.04,SW,224,0.0,0.0,100,0.00,,CLR,0.00,VWS V14.01,2013-09-05 06:13:00,
2013-09-05 02:18:00,58.3,58.3,30.04,SW,224,0.0,0.0,100,0.00,,CLR,0.00,VWS V14.01,2013-09-05 06:18:00,
2013-09-05 02:23:00,58.4,58.4,30.04,SW,224,0.0,0.0,100,0.00,,CLR,0.00,VWS V14.01,2013-09-05 06:23:00,
2013-09-05 02:28:00,58.7,58.7,30.04,SW,224,0.0,0.0,100,0.00,,CLR,0.00,VWS V14.01,2013-09-05 06:28:00,
2013-09-05 02:33:00,59.2,59.2,30.04,SW,224,0.0,0.0,100,0.00,,CLR,0.00,VWS V14.01,2013-09-05 06:33:00,
2013-09-05 02:38:00,59.3,59.3,30.04,SW,224,0.0,0.0,100,0.00,,CLR,0.00,VWS V14.01,2013-09-05 06:38:00,
2013-09-05 02:43:00,59.5,59.5,30.04,SW,224,0.0,0.0,100,0.00,,CLR,0.00,VWS V14.01,2013-09-05 06:43:00,
2013-09-05 02:48:00,59.6,59.6,30.03,SW,227,0.0,0.0,100,0.00,,CLR,0.00,VWS V14.01,2013-09-05 06:48:00,
2013-09-05 02:53:00,59.7,59.7,30.03,SW,227,0.0,0.0,100,0.00,,CLR,0.00,VWS V14.01,2013-09-05 06:53:00,
2013-09-05 02:58:00,60.3,60.3,30.03,SW,227,0.0,0.0,100,0.00,,CLR,0.00,VWS V14.01,2013-09-05 06:58:00,
2013-09-05 03:03:00,60.9,60.9,30.03,SW,227,0.0,0.0,100,0.00,,CLR,0.00,VWS V14.01,2013-09-05 07:03:00,
2013-09-05 03:08:00,61.5,61.2,30.03,SW,227,0.0,0.0,99,0.00,,CLR,0.00,VWS V14.01,2013-09-05 07:08:00,
2013-09-05 03:13:00,62.1,61.5,30.03,SW,227,0.0,0.0,98,0.00,,CLR,0.00,VWS V14.01,2013-09-05 07:13:00,
2013-09-05 03:18:00,62.3,61.4,30.03,SW,227,0.0,0.0,97,0.00,,CLR,0.00,VWS V14.01,2013-09-05 07:18:00,
2013-09-05 03:24:00,62.9,61.2,30.03,SW,227,0.0,0.0,94,0.00,,CLR,0.00,VWS V14.01,2013-09-05 07:24:00,
2013-09-05 03:29:00,63.1,61.0,30.03,SW,227,0.0,0.0,93,0.00,,CLR,0.00,VWS V14.01,2013-09-05 07:29:00,
2013-09-05 03:34:00,63.2,60.8,30.03,SW,227,0.0,0.0,92,0.00,,CLR,0.00,VWS V14.01,2013-09-05 07:34:00,
2013-09-05 03:39:00,63.1,61.0,30.03,SW,227,0.0,0.0,93,0.00,,CLR,0.00,VWS V14.01,2013-09-05 07:39:00,
2013-09-05 03:44:00,63.4,60.7,30.03,SW,227,0.0,0.0,91,0.00,,CLR,0.00,VWS V14.01,2013-09-05 07:44:00,
2013-09-05 03:49:00,63.4,60.7,30.03,SW,227,0.0,0.0,91,0.00,,CLR,0.00,VWS V14.01,2013-09-05 07:49:00,
2013-09-05 03:54:00,63.6,60.6,30.03,West,263,0.0,1.0,90,0.00,,CLR,0.00,VWS V14.01,2013-09-05 07:54:00,
2013-09-05 03:59:00,64.1,60.8,30.03,SE,134,0.0,2.0,89,0.00,,CLR,0.00,VWS V14.01,2013-09-05 07:59:00,
2013-09-05 04:04:00,64.4,60.8,30.03,SE,135,0.0,0.0,88,0.00,,CLR,0.00,VWS V14.01,2013-09-05 08:04:00,
2013-09-05 04:09:00,64.5,60.9,30.03,SE,133,1.0,3.0,88,0.00,,CLR,0.00,VWS V14.01,2013-09-05 08:09:00,
2013-09-05 04:14:00,64.4,60.8,30.03,SE,133,1.0,3.0,88,0.00,,CLR,0.00,VWS V14.01,2013-09-05 08:14:00,
2013-09-05 04:19:00,64.4,60.8,30.03,SE,133,1.0,3.0,88,0.00,,CLR,0.00,VWS V14.01,2013-09-05 08:19:00,
2013-09-05 04:24:00,64.4,61.4,30.03,SE,133,1.0,3.0,90,0.00,,CLR,0.00,VWS V14.01,2013-09-05 08:24:00,
2013-09-05 04:29:00,64.1,60.8,30.03,SE,133,0.0,3.0,89,0.00,,CLR,0.00,VWS V14.01,2013-09-05 08:29:00,
2013-09-05 04:34:00,63.9,60.3,30.03,SE,133,0.0,2.0,88,0.00,,CLR,0.00,VWS V14.01,2013-09-05 08:34:00,
2013-09-05 04:39:00,63.8,60.5,30.03,SE,133,0.0,2.0,89,0.00,,CLR,0.00,VWS V14.01,2013-09-05 08:39:00,
2013-09-05 04:44:00,63.6,60.6,30.03,ESE,105,0.0,2.0,90,0.00,,CLR,0.00,VWS V14.01,2013-09-05 08:44:00,
2013-09-05 04:49:00,63.3,60.3,30.03,ESE,105,0.0,2.0,90,0.00,,CLR,0.00,VWS V14.01,2013-09-05 08:49:00,
2013-09-05 04:54:00,63.0,60.3,30.03,ESE,105,0.0,2.0,91,0.00,,CLR,0.00,VWS V14.01,2013-09-05 08:54:00,
2013-09-05 04:59:00,62.8,60.1,30.03,ESE,105,0.0,2.0,91,0.00,,CLR,0.00,VWS V14.01,2013-09-05 08:59:00,
2013-09-05 05:04:00,62.5,59.8,30.03,ESE,105,1.0,1.0,91,0.00,,CLR,0.00,VWS V14.01,2013-09-05 09:04:00,
2013-09-05 05:09:00,62.1,60.1,30.03,ESE,105,0.0,1.0,93,0.00,,CLR,0.00,VWS V14.01,2013-09-05 09:09:00,
2013-09-05 05:14:00,61.8,59.8,30.03,ESE,105,0.0,1.0,93,0.00,,CLR,0.00,VWS V14.01,2013-09-05 09:14:00,
2013-09-05 05:19:00,61.4,59.4,30.03,ESE,105,0.0,1.0,93,0.00,,CLR,0.00,VWS V14.01,2013-09-05 09:19:00,
2013-09-05 05:24:00,61.0,59.3,30.03,ESE,105,0.0,1.0,94,0.00,,CLR,0.00,VWS V14.01,2013-09-05 09:24:00,
2013-09-05 05:29:00,60.7,59.3,30.03,ESE,105,1.0,2.0,95,0.00,,CLR,0.00,VWS V14.01,2013-09-05 09:29:00,
2013-09-05 05:34:00,60.4,59.3,30.03,ESE,105,0.0,2.0,96,0.00,,CLR,0.00,VWS V14.01,2013-09-05 09:34:00,
2013-09-05 05:39:00,60.0,58.6,30.03,ESE,105,0.0,2.0,95,0.00,,CLR,0.00,VWS V14.01,2013-09-05 09:39:00,
2013-09-05 05:44:00,59.7,58.8,30.03,ESE,105,0.0,2.0,97,0.00,,CLR,0.00,VWS V14.01,2013-09-05 09:44:00,
2013-09-05 05:49:00,59.6,58.8,30.03,ESE,105,0.0,2.0,97,0.00,,CLR,0.00,VWS V14.01,2013-09-05 09:49:00,
2013-09-05 05:54:00,59.3,58.7,30.03,ESE,105,0.0,2.0,98,0.00,,CLR,0.00,VWS V14.01,2013-09-05 09:54:00,
2013-09-05 05:59:00,59.1,58.5,30.03,ESE,115,0.0,2.0,98,0.00,,CLR,0.00,VWS V14.01,2013-09-05 09:59:00,
2013-09-05 06:04:00,58.8,58.2,30.03,ESE,115,0.0,0.0,98,0.00,,CLR,0.00,VWS V14.01,2013-09-05 10:04:00,
2013-09-05 06:09:00,58.6,58.3,30.03,ESE,115,0.0,0.0,99,0.00,,CLR,0.00,VWS V14.01,2013-09-05 10:09:00,
2013-09-05 06:14:00,58.3,58.0,30.03,ESE,115,0.0,0.0,99,0.00,,CLR,0.00,VWS V14.01,2013-09-05 10:14:00,
2013-09-05 06:19:00,58.1,58.1,30.03,ESE,115,0.0,1.0,100,0.00,,CLR,0.00,VWS V14.01,2013-09-05 10:19:00,
2013-09-05 06:24:00,58.0,58.0,30.03,ESE,115,0.0,1.0,100,0.00,,CLR,0.00,VWS V14.01,2013-09-05 10:24:00,
2013-09-05 06:29:00,57.9,57.9,30.03,ESE,115,0.0,0.0,100,0.00,,CLR,0.00,VWS V14.01,2013-09-05 10:29:00,
2013-09-05 06:34:00,57.7,57.7,30.03,ENE,71,0.0,1.0,100,0.00,,CLR,0.00,VWS V14.01,2013-09-05 10:34:00,
2013-09-05 06:39:00,57.6,57.6,30.03,ENE,71,1.0,2.0,100,0.00,,CLR,0.00,VWS V14.01,2013-09-05 10:39:00,
2013-09-05 06:44:00,57.5,57.5,30.03,ESE,110,0.0,2.0,100,0.00,,CLR,0.00,VWS V14.01,2013-09-05 10:44:00,
2013-09-05 06:49:00,57.4,57.4,30.03,ESE,110,0.0,2.0,100,0.00,,CLR,0.00,VWS V14.01,2013-09-05 10:49:00,
2013-09-05 06:54:00,57.4,57.4,30.03,ESE,110,0.0,2.0,100,0.00,,CLR,0.00,VWS V14.01,2013-09-05 10:54:00,
2013-09-05 06:59:00,57.5,57.5,30.03,ESE,110,0.0,0.0,100,0.00,,CLR,0.00,VWS V14.01,2013-09-05 10:59:00,
2013-09-05 07:04:00,57.5,57.5,30.03,ESE,111,0.0,1.0,100,0.00,,CLR,0.00,VWS V14.01,2013-09-05 11:04:00,
2013-09-05 07:09:00,57.7,57.7,30.03,ESE,111,0.0,1.0,100,0.00,,CLR,0.00,VWS V14.01,2013-09-05 11:09:00,
2013-09-05 07:14:00,57.9,57.9,30.03,ESE,111,0.0,1.0,100,0.00,,CLR,0.00,VWS V14.01,2013-09-05 11:14:00,
2013-09-05 07:19:00,58.1,58.1,30.03,ESE,111,0.0,1.0,100,0.00,,CLR,0.00,VWS V14.01,2013-09-05 11:19:00,
2013-09-05 07:24:00,58.2,58.2,30.03,ESE,111,0.0,1.0,100,0.00,,CLR,0.00,VWS V14.01,2013-09-05 11:24:00,
2013-09-05 07:29:00,58.5,58.5,30.04,ESE,111,0.0,0.0,100,0.00,,CLR,0.00,VWS V14.01,2013-09-05 11:29:00,
2013-09-05 07:34:00,59.0,59.0,30.03,ESE,111,0.0,0.0,100,0.00,,CLR,0.00,VWS V14.01,2013-09-05 11:34:00,
2013-09-05 07:39:00,59.2,59.2,30.04,ESE,111,0.0,0.0,100,0.00,,CLR,0.00,VWS V14.01,2013-09-05 11:39:00,
2013-09-05 07:44:00,59.6,59.6,30.04,ESE,111,0.0,0.0,100,0.00,,CLR,0.00,VWS V14.01,2013-09-05 11:44:00,
2013-09-05 07:49:00,60.3,60.3,30.04,ESE,111,0.0,0.0,100,0.00,,CLR,0.00,VWS V14.01,2013-09-05 11:49:00,
2013-09-05 07:54:00,60.9,60.9,30.03,ESE,111,0.0,0.0,100,0.00,,CLR,0.00,VWS V14.01,2013-09-05 11:54:00,
2013-09-05 07:59:00,61.7,61.4,30.04,ESE,111,0.0,0.0,99,0.00,,CLR,0.00,VWS V14.01,2013-09-05 11:59:00,
2013-09-05 08:04:00,62.5,61.6,30.04,ESE,111,0.0,0.0,97,0.00,,CLR,0.00,VWS V14.01,2013-09-05 12:04:00,
2013-09-05 08:09:00,63.0,62.1,30.04,ESE,111,0.0,0.0,97,0.00,,CLR,0.00,VWS V14.01,2013-09-05 12:09:00,
2013-09-05 08:14:00,63.6,62.2,30.03,ESE,111,0.0,0.0,95,0.00,,CLR,0.00,VWS V14.01,2013-09-05 12:14:00,
2013-09-05 08:19:00,64.2,62.4,30.03,ESE,111,0.0,0.0,94,0.00,,CLR,0.00,VWS V14.01,2013-09-05 12:19:00,
2013-09-05 08:24:00,64.7,62.6,30.03,WSW,238,3.0,5.0,93,0.00,,CLR,0.00,VWS V14.01,2013-09-05 12:24:00,
2013-09-05 08:29:00,65.7,62.7,30.03,West,267,2.0,5.0,90,0.00,,CLR,0.00,VWS V14.01,2013-09-05 12:29:00,
2013-09-05 08:34:00,68.2,63.5,30.03,NNW,329,1.0,3.0,85,0.00,,CLR,0.00,VWS V14.01,2013-09-05 12:34:00,
2013-09-05 08:39:00,68.8,63.1,30.03,WSW,258,0.0,3.0,82,0.00,,CLR,0.00,VWS V14.01,2013-09-05 12:39:00,
2013-09-05 08:44:00,69.5,63.8,30.03,NNW,342,0.0,3.0,82,0.00,,SCT002,0.00,VWS V14.01,2013-09-05 12:44:00,
2013-09-05 08:49:00,70.1,64.0,30.03,ENE,78,1.0,3.0,81,0.00,,SCT002,0.00,VWS V14.01,2013-09-05 12:49:00,
2013-09-05 08:54:00,70.7,64.2,30.03,NW,323,0.0,3.0,80,0.00,,SCT002,0.00,VWS V14.01,2013-09-05 12:54:00,
2013-09-05 08:59:00,71.3,64.5,30.03,NNW,331,2.0,2.0,79,0.00,,SCT002,0.00,VWS V14.01,2013-09-05 12:59:00,
2013-09-05 09:04:00,72.2,65.0,30.04,NNW,343,2.0,3.0,78,0.00,,CLR,0.00,VWS V14.01,2013-09-05 13:04:00,
2013-09-05 09:09:00,72.8,64.4,30.04,NNE,18,1.0,3.0,75,0.00,,CLR,0.00,VWS V14.01,2013-09-05 13:09:00,
2013-09-05 09:14:00,73.3,64.5,30.03,NW,309,0.0,4.0,74,0.00,,CLR,0.00,VWS V14.01,2013-09-05 13:14:00,
2013-09-05 09:20:00,73.9,64.7,30.03,North,355,0.0,4.0,73,0.00,,CLR,0.00,VWS V14.01,2013-09-05 13:20:00,
2013-09-05 09:25:00,74.4,65.2,30.04,NNE,31,1.0,4.0,73,0.00,,CLR,0.00,VWS V14.01,2013-09-05 13:25:00,
2013-09-05 09:30:00,75.0,65.0,30.04,WSW,253,0.0,4.0,71,0.00,,CLR,0.00,VWS V14.01,2013-09-05 13:30:00,
2013-09-05 09:35:00,75.5,65.4,30.04,NNW,327,2.0,4.0,71,0.00,,CLR,0.00,VWS V14.01,2013-09-05 13:35:00,
2013-09-05 09:40:00,76.0,65.5,30.04,NNW,340,1.0,5.0,70,0.00,,CLR,0.00,VWS V14.01,2013-09-05 13:40:00,
2013-09-05 09:45:00,76.6,65.7,30.04,NW,319,1.0,5.0,69,0.00,,CLR,0.00,VWS V14.01,2013-09-05 13:45:00,
2013-09-05 09:50:00,76.8,65.9,30.04,West,261,1.0,5.0,69,0.00,,CLR,0.00,VWS V14.01,2013-09-05 13:50:00,
2013-09-05 09:55:00,77.0,65.6,30.04,NNW,342,1.0,5.0,68,0.00,,CLR,0.00,VWS V14.01,2013-09-05 13:55:00,
2013-09-05 10:00:00,77.2,66.2,30.04,NNW,345,2.0,2.0,69,0.00,,CLR,0.00,VWS V14.01,2013-09-05 14:00:00,
2013-09-05 10:05:00,77.5,66.1,30.04,NNW,337,1.0,3.0,68,0.00,,CLR,0.00,VWS V14.01,2013-09-05 14:05:00,
2013-09-05 10:10:00,78.0,66.2,30.04,SW,231,2.0,3.0,67,0.00,,CLR,0.00,VWS V14.01,2013-09-05 14:10:00,
2013-09-05 10:15:00,78.6,67.2,30.05,ENE,67,0.0,3.0,68,0.00,,CLR,0.00,VWS V14.01,2013-09-05 14:15:00,
2013-09-05 10:20:00,78.9,66.6,30.05,North,11,0.0,4.0,66,0.00,,CLR,0.00,VWS V14.01,2013-09-05 14:20:00,
2013-09-05 10:25:00,79.2,66.0,30.05,NNW,344,3.0,4.0,64,0.00,,CLR,0.00,VWS V14.01,2013-09-05 14:25:00,
2013-09-05 10:30:00,79.0,67.1,30.05,WSW,244,5.0,5.0,67,0.00,,CLR,0.00,VWS V14.01,2013-09-05 14:30:00,
2013-09-05 10:35:00,79.2,67.3,30.05,NNW,344,1.0,5.0,67,0.00,,CLR,0.00,VWS V14.01,2013-09-05 14:35:00,
2013-09-05 10:40:00,79.3,67.8,30.05,North,355,1.0,5.0,68,0.00,,CLR,0.00,VWS V14.01,2013-09-05 14:40:00,
2013-09-05 10:45:00,79.4,67.1,30.05,NW,323,2.0,5.0,66,0.00,,CLR,0.00,VWS V14.01,2013-09-05 14:45:00,
2013-09-05 10:50:00,79.7,66.9,30.05,NW,322,2.0,5.0,65,0.00,,CLR,0.00,VWS V14.01,2013-09-05 14:50:00,
2013-09-05 10:55:00,80.1,67.7,30.05,North,360,2.0,6.0,66,0.00,,CLR,0.00,VWS V14.01,2013-09-05 14:55:00,
2013-09-05 11:00:00,80.8,67.9,30.05,North,11,0.0,0.0,65,0.00,,CLR,0.00,VWS V14.01,2013-09-05 15:00:00,
2013-09-05 11:05:00,81.4,68.1,30.04,North,355,0.0,5.0,64,0.00,,CLR,0.00,VWS V14.01,2013-09-05 15:05:00,
2013-09-05 11:10:00,81.8,68.4,30.04,NNE,16,2.0,5.0,64,0.00,,CLR,0.00,VWS V14.01,2013-09-05 15:10:00,
2013-09-05 11:15:00,82.1,68.3,30.04,NNW,327,0.0,5.0,63,0.00,,CLR,0.00,VWS V14.01,2013-09-05 15:15:00,
2013-09-05 11:20:00,82.2,67.9,30.04,WNW,286,0.0,7.0,62,0.00,,CLR,0.00,VWS V14.01,2013-09-05 15:20:00,
2013-09-05 11:25:00,82.3,67.0,30.05,NNW,340,2.0,7.0,60,0.00,,CLR,0.00,VWS V14.01,2013-09-05 15:25:00,
2013-09-05 11:30:00,82.3,67.5,30.04,NNW,342,2.0,7.0,61,0.00,,CLR,0.00,VWS V14.01,2013-09-05 15:30:00,
2013-09-05 11:35:00,82.8,69.4,30.04,NW,315,1.0,7.0,64,0.00,,CLR,0.00,VWS V14.01,2013-09-05 15:35:00,
2013-09-05 11:40:00,83.2,68.4,30.04,NNW,331,0.0,7.0,61,0.00,,CLR,0.00,VWS V14.01,2013-09-05 15:40:00,
2013-09-05 11:45:00,82.5,67.2,30.05,NNW,340,2.0,7.0,60,0.00,,CLR,0.00,VWS V14.01,2013-09-05 15:45:00,
2013-09-05 11:50:00,81.6,67.8,30.05,NNW,331,1.0,7.0,63,0.00,,CLR,0.00,VWS V14.01,2013-09-05 15:50:00,
2013-09-05 11:55:00,81.7,67.9,30.05,NW,326,2.0,7.0,63,0.00,,CLR,0.00,VWS V14.01,2013-09-05 15:55:00,
2013-09-05 12:02:00,82.8,68.9,30.04,North,351,1.0,1.0,63,0.00,,CLR,0.00,VWS V14.01,2013-09-05 16:02:00,
2013-09-05 12:07:00,83.4,68.1,30.04,NNW,327,0.0,6.0,60,0.00,,SCT044,0.00,VWS V14.01,2013-09-05 16:07:00,
2013-09-05 12:12:00,83.8,68.9,30.04,North,5,1.0,6.0,61,0.00,,SCT044,0.00,VWS V14.01,2013-09-05 16:12:00,
2013-09-05 12:17:00,83.9,68.1,30.04,NNW,340,2.0,6.0,59,0.00,,SCT044,0.00,VWS V14.01,2013-09-05 16:17:00,
2013-09-05 12:22:00,83.5,68.2,30.04,NW,320,1.0,6.0,60,0.00,,BKN050,0.00,VWS V14.01,2013-09-05 16:22:00,
2013-09-05 12:27:00,83.4,69.5,30.04,NW,320,2.0,6.0,63,0.00,,BKN050,0.00,VWS V14.01,2013-09-05 16:27:00,
2013-09-05 12:32:00,83.4,68.6,30.04,North,351,2.0,4.0,61,0.00,,BKN050,0.00,VWS V14.01,2013-09-05 16:32:00,
2013-09-05 12:37:00,83.5,68.7,30.04,North,5,2.0,4.0,61,0.00,,BKN050,0.00,VWS V14.01,2013-09-05 16:37:00,
2013-09-05 12:42:00,83.5,68.7,30.04,North,351,1.0,4.0,61,0.00,,BKN050,0.00,VWS V14.01,2013-09-05 16:42:00,
2013-09-05 12:47:00,83.8,68.4,30.03,NW,306,0.0,4.0,60,0.00,,BKN050,0.00,VWS V14.01,2013-09-05 16:47:00,
2013-09-05 12:52:00,84.3,68.9,30.03,North,349,1.0,4.0,60,0.00,,BKN050,0.00,VWS V14.01,2013-09-05 16:52:00,
2013-09-05 12:57:00,83.6,68.3,30.03,NNW,339,0.0,7.0,60,0.00,,BKN050,0.00,VWS V14.01,2013-09-05 16:57:00,
2013-09-05 13:02:00,83.2,68.8,30.03,North,355,0.0,3.0,62,0.00,,OVC060,0.00,VWS V14.01,2013-09-05 17:02:00,
2013-09-05 13:07:00,83.4,69.0,30.03,NW,323,2.0,3.0,62,0.00,,OVC060,0.00,VWS V14.01,2013-09-05 17:07:00,
2013-09-05 13:12:00,83.6,68.3,30.03,NW,317,0.0,3.0,60,0.00,,OVC060,0.00,VWS V14.01,2013-09-05 17:12:00,
2013-09-05 13:17:00,84.1,68.2,30.03,NNW,338,2.0,3.0,59,0.00,,OVC060,0.00,VWS V14.01,2013-09-05 17:17:00,
2013-09-05 13:22:00,84.1,67.2,30.03,NNW,338,1.0,3.0,57,0.00,,OVC055,0.00,VWS V14.01,2013-09-05 17:22:00,
2013-09-05 13:27:00,83.9,68.1,30.03,NW,326,0.0,3.0,59,0.00,,OVC055,0.00,VWS V14.01,2013-09-05 17:27:00,
2013-09-05 13:32:00,84.5,69.6,30.03,WNW,285,0.0,2.0,61,0.00,,OVC055,0.00,VWS V14.01,2013-09-05 17:32:00,
2013-09-05 13:37:00,85.0,68.6,30.03,NNW,329,3.0,3.0,58,0.00,,OVC055,0.00,VWS V14.01,2013-09-05 17:37:00,
2013-09-05 13:42:00,83.9,67.6,30.03,NNW,336,1.0,3.0,58,0.00,,BKN060,0.00,VWS V14.01,2013-09-05 17:42:00,
2013-09-05 13:47:00,83.7,67.4,30.02,NNW,337,2.0,3.0,58,0.00,,BKN060,0.00,VWS V14.01,2013-09-05 17:47:00,
2013-09-05 13:52:00,83.8,68.4,30.03,NNW,341,0.0,3.0,60,0.00,,BKN060,0.00,VWS V14.01,2013-09-05 17:52:00,
2013-09-05 13:57:00,83.8,68.4,30.03,NNW,330,0.0,3.0,60,0.00,,BKN060,0.00,VWS V14.01,2013-09-05 17:57:00,
2013-09-05 14:02:00,83.6,67.8,30.02,NNW,327,2.0,3.0,59,0.00,,BKN049,0.00,VWS V14.01,2013-09-05 18:02:00,
2013-09-05 14:07:00,83.4,67.6,30.03,NW,319,2.0,3.0,59,0.00,,BKN049,0.00,VWS V14.01,2013-09-05 18:07:00,
2013-09-05 14:12:00,83.2,67.4,30.02,North,355,1.0,3.0,59,0.00,,BKN049,0.00,VWS V14.01,2013-09-05 18:12:00,
2013-09-05 14:17:00,83.2,67.4,30.02,NNW,341,0.0,3.0,59,0.00,,BKN049,0.00,VWS V14.01,2013-09-05 18:17:00,
2013-09-05 14:22:00,83.0,68.7,30.02,SE,142,1.0,3.0,62,0.00,,BKN049,0.00,VWS V14.01,2013-09-05 18:22:00,
2013-09-05 14:27:00,82.8,67.0,30.02,WNW,298,0.0,4.0,59,0.00,,BKN049,0.00,VWS V14.01,2013-09-05 18:27:00,
2013-09-05 14:32:00,82.1,68.3,30.02,NNW,348,0.0,2.0,63,0.00,,BKN049,0.00,VWS V14.01,2013-09-05 18:32:00,
2013-09-05 14:37:00,82.0,66.8,30.02,NW,325,1.0,4.0,60,0.00,,BKN049,0.00,VWS V14.01,2013-09-05 18:37:00,
2013-09-05 14:42:00,82.6,67.3,30.02,North,355,0.0,4.0,60,0.00,,BKN060,0.00,VWS V14.01,2013-09-05 18:42:00,
2013-09-05 14:47:00,82.5,66.7,30.02,NNW,338,0.0,4.0,59,0.00,,BKN060,0.00,VWS V14.01,2013-09-05 18:47:00,
2013-09-05 14:52:00,82.7,65.4,30.02,West,269,0.0,4.0,56,0.00,,BKN060,0.00,VWS V14.01,2013-09-05 18:52:00,
2013-09-05 14:57:00,83.2,65.9,30.01,WSW,249,1.0,4.0,56,0.00,,BKN060,0.00,VWS V14.01,2013-09-05 18:57:00,
2013-09-05 15:02:00,83.5,67.2,30.01,NW,311,1.0,4.0,58,0.00,,SCT060,0.00,VWS V14.01,2013-09-05 19:02:00,
2013-09-05 15:07:00,83.8,67.5,30.02,North,355,1.0,4.0,58,0.00,,SCT060,0.00,VWS V14.01,2013-09-05 19:07:00,
2013-09-05 15:12:00,83.8,65.9,30.01,NNE,25,2.0,4.0,55,0.00,,SCT060,0.00,VWS V14.01,2013-09-05 19:12:00,
2013-09-05 15:17:00,84.0,66.6,30.01,NNW,348,0.0,4.0,56,0.00,,SCT060,0.00,VWS V14.01,2013-09-05 19:17:00,
2013-09-05 15:22:00,84.2,65.2,30.01,NNW,331,0.0,4.0,53,0.00,,SCT050,0.00,VWS V14.01,2013-09-05 19:22:00,
2013-09-05 15:27:00,83.5,65.1,30.01,North,355,2.0,4.0,54,0.00,,SCT050,0.00,VWS V14.01,2013-09-05 19:27:00,
2013-09-05 15:32:00,82.9,65.1,30.01,North,350,0.0,2.0,55,0.00,,SCT050,0.00,VWS V14.01,2013-09-05 19:32:00,
2013-09-05 15:37:00,83.0,66.2,30.01,North,5,1.0,2.0,57,0.00,,SCT050,0.00,VWS V14.01,2013-09-05 19:37:00,
2013-09-05 15:42:00,82.5,65.2,30.01,NNW,332,1.0,2.0,56,0.00,,SCT050,0.00,VWS V14.01,2013-09-05 19:42:00,
2013-09-05 15:47:00,82.5,65.8,30.01,North,355,1.0,2.0,57,0.00,,SCT050,0.00,VWS V14.01,2013-09-05 19:47:00,
2013-09-05 15:52:00,83.0,66.2,30.01,North,9,1.0,2.0,57,0.00,,SCT050,0.00,VWS V14.01,2013-09-05 19:52:00,
2013-09-05 15:57:00,83.2,64.8,30.01,NNE,16,0.0,2.0,54,0.00,,SCT050,0.00,VWS V14.01,2013-09-05 19:57:00,
2013-09-05 16:03:00,82.9,64.6,30.01,ENE,63,0.0,0.0,54,0.00,,SCT050,0.00,VWS V14.01,2013-09-05 20:03:00,
2013-09-05 16:08:00,82.5,65.8,30.01,NE,41,0.0,2.0,57,0.00,,SCT065,0.00,VWS V14.01,2013-09-05 20:08:00,
2013-09-05 16:13:00,82.1,66.4,30.01,NE,41,0.0,2.0,59,0.00,,SCT065,0.00,VWS V14.01,2013-09-05 20:13:00,
2013-09-05 16:18:00,81.9,65.2,30.01,NE,56,0.0,2.0,57,0.00,,SCT065,0.00,VWS V14.01,2013-09-05 20:18:00,
2013-09-05 16:23:00,81.7,66.0,30.01,NW,304,0.0,5.0,59,0.00,,SCT065,0.00,VWS V14.01,2013-09-05 20:23:00,
2013-09-05 16:28:00,82.0,65.8,30.01,ENE,61,0.0,5.0,58,0.00,,SCT065,0.00,VWS V14.01,2013-09-05 20:28:00,
2013-09-05 16:33:00,81.9,66.2,30.01,ENE,71,2.0,2.0,59,0.00,,SCT065,0.00,VWS V14.01,2013-09-05 20:33:00,
2013-09-05 16:38:00,81.6,66.4,30.01,WNW,298,0.0,2.0,60,0.00,,SCT065,0.00,VWS V14.01,2013-09-05 20:38:00,
2013-09-05 16:43:00,81.7,66.5,30.01,North,349,0.0,2.0,60,0.00,,SCT065,0.00,VWS V14.01,2013-09-05 20:43:00,
2013-09-05 16:48:00,81.5,66.3,30.01,ESE,112,3.0,3.0,60,0.00,,SCT065,0.00,VWS V14.01,2013-09-05 20:48:00,
2013-09-05 16:53:00,81.1,65.4,30.01,NW,309,0.0,3.0,59,0.00,,SCT065,0.00,VWS V14.01,2013-09-05 20:53:00,
2013-09-05 16:58:00,80.8,67.0,30.01,NW,309,0.0,3.0,63,0.00,,SCT065,0.00,VWS V14.01,2013-09-05 20:58:00,
2013-09-05 17:03:00,80.5,65.8,30.02,North,350,0.0,2.0,61,0.00,,SCT070,0.00,VWS V14.01,2013-09-05 21:03:00,
2013-09-05 17:08:00,80.3,64.7,30.01,NNW,339,0.0,2.0,59,0.00,,SCT070,0.00,VWS V14.01,2013-09-05 21:08:00,
2013-09-05 17:13:00,80.5,65.8,30.01,NNE,17,1.0,2.0,61,0.00,,SCT070,0.00,VWS V14.01,2013-09-05 21:13:00,
2013-09-05 17:18:00,80.3,63.7,30.01,NNE,17,0.0,2.0,57,0.00,,SCT070,0.00,VWS V14.01,2013-09-05 21:18:00,
2013-09-05 17:23:00,79.9,63.8,30.02,NNE,15,0.0,3.0,58,0.00,,CLR,0.00,VWS V14.01,2013-09-05 21:23:00,
2013-09-05 17:28:00,79.4,62.9,30.02,NNE,15,0.0,3.0,57,0.00,,CLR,0.00,VWS V14.01,2013-09-05 21:28:00,
2013-09-05 17:33:00,79.1,62.6,30.02,NNE,15,1.0,2.0,57,0.00,,CLR,0.00,VWS V14.01,2013-09-05 21:33:00,
2013-09-05 17:38:00,78.7,64.1,30.02,NE,39,0.0,2.0,61,0.00,,CLR,0.00,VWS V14.01,2013-09-05 21:38:00,
2013-09-05 17:43:00,78.6,64.5,30.02,NE,39,0.0,0.0,62,0.00,,CLR,0.00,VWS V14.01,2013-09-05 21:43:00,
2013-09-05 17:48:00,78.4,64.3,30.02,NE,39,0.0,0.0,62,0.00,,SCT070,0.00,VWS V14.01,2013-09-05 21:48:00,
2013-09-05 17:53:00,78.1,64.9,30.03,SSE,155,1.0,1.0,64,0.00,,SCT070,0.00,VWS V14.01,2013-09-05 21:53:00,
2013-09-05 17:58:00,77.7,62.7,30.03,NW,309,0.0,3.0,60,0.00,,SCT070,0.00,VWS V14.01,2013-09-05 21:58:00,
2013-09-05 18:03:00,77.5,61.1,30.03,NW,322,0.0,3.0,57,0.00,,SCT070,0.00,VWS V14.01,2013-09-05 22:03:00,
2013-09-05 18:08:00,77.4,60.5,30.03,NW,322,0.0,3.0,56,0.00,,SCT070,0.00,VWS V14.01,2013-09-05 22:08:00,
2013-09-05 18:13:00,77.2,62.2,30.04,NW,304,1.0,1.0,60,0.00,,SCT070,0.00,VWS V14.01,2013-09-05 22:13:00,
2013-09-05 18:18:00,77.0,60.1,30.04,NW,304,0.0,1.0,56,0.00,,SCT070,0.00,VWS V14.01,2013-09-05 22:18:00,
2013-09-05 18:23:00,76.8,60.4,30.04,NW,304,0.0,1.0,57,0.00,,SCT070,0.00,VWS V14.01,2013-09-05 22:23:00,
2013-09-05 18:28:00,76.5,60.6,30.04,NNW,336,0.0,2.0,58,0.00,,SCT070,0.00,VWS V14.01,2013-09-05 22:28:00,
2013-09-05 18:33:00,76.1,60.8,30.04,NNW,336,0.0,0.0,59,0.00,,SCT070,0.00,VWS V14.01,2013-09-05 22:33:00,
2013-09-05 18:38:00,75.8,59.5,30.04,NNW,336,0.0,0.0,57,0.00,,SCT070,0.00,VWS V14.01,2013-09-05 22:38:00,
2013-09-05 18:43:00,75.6,60.3,30.04,NNW,336,0.0,1.0,59,0.00,,SCT070,0.00,VWS V14.01,2013-09-05 22:43:00,
2013-09-05 18:48:00,75.4,59.6,30.04,NNW,336,0.0,1.0,58,0.00,,SCT070,0.00,VWS V14.01,2013-09-05 22:48:00,
2013-09-05 18:53:00,75.3,60.0,30.04,NNW,336,0.0,1.0,59,0.00,,SCT070,0.00,VWS V14.01,2013-09-05 22:53:00,
2013-09-05 18:58:00,75.0,59.7,30.04,NNW,336,0.0,1.0,59,0.00,,SCT070,0.00,VWS V14.01,2013-09-05 22:58:00,
2013-09-05 19:03:00,74.7,59.9,30.04,NNW,336,0.0,0.0,60,0.00,,CLR,0.00,VWS V14.01,2013-09-05 23:03:00,
2013-09-05 19:08:00,74.2,61.2,30.04,NNW,336,0.0,0.0,64,0.00,,CLR,0.00,VWS V14.01,2013-09-05 23:08:00,
2013-09-05 19:13:00,73.7,60.8,30.05,NNW,336,0.0,0.0,64,0.00,,CLR,0.00,VWS V14.01,2013-09-05 23:13:00,
2013-09-05 19:18:00,73.3,61.3,30.05,NNW,336,0.0,0.0,66,0.00,,CLR,0.00,VWS V14.01,2013-09-05 23:18:00,
2013-09-05 19:23:00,72.6,60.2,30.05,NNW,336,0.0,0.0,65,0.00,,CLR,0.00,VWS V14.01,2013-09-05 23:23:00,
2013-09-05 19:28:00,72.2,59.4,30.05,NNW,336,0.0,0.0,64,0.00,,CLR,0.00,VWS V14.01,2013-09-05 23:28:00,
2013-09-05 19:33:00,71.9,59.5,30.05,NNW,336,0.0,0.0,65,0.00,,CLR,0.00,VWS V14.01,2013-09-05 23:33:00,
2013-09-05 19:38:00,71.5,60.4,30.05,NNW,336,0.0,0.0,68,0.00,,CLR,0.00,VWS V14.01,2013-09-05 23:38:00,
2013-09-05 19:43:00,71.0,58.7,30.05,NNW,336,0.0,1.0,65,0.00,,CLR,0.00,VWS V14.01,2013-09-05 23:43:00,
2013-09-05 19:48:00,70.9,59.0,30.05,NNW,336,0.0,1.0,66,0.00,,CLR,0.00,VWS V14.01,2013-09-05 23:48:00,
2013-09-05 19:53:00,70.8,59.3,30.06,NNW,336,0.0,0.0,67,0.00,,CLR,0.00,VWS V14.01,2013-09-05 23:53:00,
2013-09-05 19:58:00,70.5,58.6,30.06,NNW,336,0.0,0.0,66,0.00,,CLR,0.00,VWS V14.01,2013-09-05 23:58:00,
2013-09-05 20:03:00,70.2,58.7,30.07,NNW,336,0.0,0.0,67,0.00,,CLR,0.00,VWS V14.01,2013-09-06 00:03:00,
2013-09-05 20:08:00,69.8,59.2,30.07,NNW,336,0.0,0.0,69,0.00,,CLR,0.00,VWS V14.01,2013-09-06 00:08:00,
2013-09-05 20:13:00,69.7,58.7,30.07,NNW,336,0.0,0.0,68,0.00,,CLR,0.00,VWS V14.01,2013-09-06 00:13:00,
2013-09-05 20:18:00,69.0,58.0,30.07,NNW,336,0.0,0.0,68,0.00,,CLR,0.00,VWS V14.01,2013-09-06 00:18:00,
2013-09-05 20:23:00,68.8,58.2,30.07,NNW,336,0.0,0.0,69,0.00,,CLR,0.00,VWS V14.01,2013-09-06 00:23:00,
2013-09-05 20:28:00,68.6,57.2,30.07,NNW,336,0.0,0.0,67,0.00,,CLR,0.00,VWS V14.01,2013-09-06 00:28:00,
2013-09-05 20:33:00,68.6,56.8,30.08,NNW,336,0.0,0.0,66,0.00,,CLR,0.00,VWS V14.01,2013-09-06 00:33:00,
2013-09-05 20:38:00,68.8,57.0,30.08,NNW,336,0.0,0.0,66,0.00,,CLR,0.00,VWS V14.01,2013-09-06 00:38:00,
2013-09-05 20:43:00,68.6,57.6,30.08,NNW,336,0.0,0.0,68,0.00,,CLR,0.00,VWS V14.01,2013-09-06 00:43:00,
2013-09-05 20:48:00,68.4,56.2,30.08,NNW,336,0.0,0.0,65,0.00,,CLR,0.00,VWS V14.01,2013-09-06 00:48:00,
2013-09-05 20:53:00,68.2,56.8,30.09,NNW,336,0.0,0.0,67,0.00,,CLR,0.00,VWS V14.01,2013-09-06 00:53:00,
2013-09-05 20:58:00,68.0,55.8,30.08,NNW,336,0.0,0.0,65,0.00,,CLR,0.00,VWS V14.01,2013-09-06 00:58:00,
2013-09-05 21:03:00,67.7,56.8,30.08,NNW,336,0.0,0.0,68,0.00,,CLR,0.00,VWS V14.01,2013-09-06 01:03:00,
2013-09-05 21:08:00,67.4,56.9,30.08,NNW,336,0.0,0.0,69,0.00,,CLR,0.00,VWS V14.01,2013-09-06 01:08:00,
2013-09-05 21:13:00,66.8,56.3,30.09,NNW,336,0.0,0.0,69,0.00,,CLR,0.00,VWS V14.01,2013-09-06 01:13:00,
2013-09-05 21:18:00,66.4,55.9,30.09,NNW,336,0.0,0.0,69,0.00,,CLR,0.00,VWS V14.01,2013-09-06 01:18:00,
2013-09-05 21:23:00,66.1,56.0,30.09,NNW,336,0.0,0.0,70,0.00,,CLR,0.00,VWS V14.01,2013-09-06 01:23:00,
2013-09-05 21:28:00,65.7,56.4,30.09,NNW,336,0.0,0.0,72,0.00,,CLR,0.00,VWS V14.01,2013-09-06 01:28:00,
2013-09-05 21:33:00,65.6,56.3,30.09,NW,317,0.0,0.0,72,0.00,,CLR,0.00,VWS V14.01,2013-09-06 01:33:00,
2013-09-05 21:38:00,65.5,56.2,30.09,NW,317,0.0,0.0,72,0.00,,CLR,0.00,VWS V14.01,2013-09-06 01:38:00,
2013-09-05 21:43:00,65.2,56.0,30.10,NW,317,0.0,0.0,72,0.00,,CLR,0.00,VWS V14.01,2013-09-06 01:43:00,
2013-09-05 21:48:00,64.7,55.5,30.10,NW,317,0.0,0.0,72,0.00,,CLR,0.00,VWS V14.01,2013-09-06 01:48:00,
2013-09-05 21:53:00,64.4,55.6,30.10,NW,317,0.0,0.0,73,0.00,,CLR,0.00,VWS V14.01,2013-09-06 01:53:00,
2013-09-05 21:58:00,64.2,55.4,30.10,NW,317,0.0,0.0,73,0.00,,CLR,0.00,VWS V14.01,2013-09-06 01:58:00,
2013-09-05 22:03:00,63.9,56.2,30.10,NW,317,0.0,0.0,76,0.00,,CLR,0.00,VWS V14.01,2013-09-06 02:03:00,
2013-09-05 22:08:00,63.5,55.8,30.11,NW,317,0.0,0.0,76,0.00,,CLR,0.00,VWS V14.01,2013-09-06 02:08:00,
2013-09-05 22:13:00,63.2,55.5,30.11,NW,317,0.0,0.0,76,0.00,,CLR,0.00,VWS V14.01,2013-09-06 02:13:00,
2013-09-05 22:18:00,63.3,56.0,30.11,NW,317,0.0,0.0,77,0.00,,CLR,0.00,VWS V14.01,2013-09-06 02:18:00,
2013-09-05 22:23:00,63.1,55.8,30.11,NW,317,0.0,0.0,77,0.00,,CLR,0.00,VWS V14.01,2013-09-06 02:23:00,
2013-09-05 22:28:00,63.0,55.7,30.11,NW,317,0.0,0.0,77,0.00,,CLR,0.00,VWS V14.01,2013-09-06 02:28:00,
2013-09-05 22:33:00,62.8,55.5,30.11,NW,317,0.0,0.0,77,0.00,,CLR,0.00,VWS V14.01,2013-09-06 02:33:00,
2013-09-05 22:38:00,62.6,55.7,30.11,NW,317,0.0,0.0,78,0.00,,CLR,0.00,VWS V14.01,2013-09-06 02:38:00,
2013-09-05 22:43:00,62.5,55.6,30.11,NW,317,0.0,0.0,78,0.00,,CLR,0.00,VWS V14.01,2013-09-06 02:43:00,
2013-09-05 22:48:00,62.3,55.4,30.11,NW,317,0.0,0.0,78,0.00,,CLR,0.00,VWS V14.01,2013-09-06 02:48:00,
2013-09-05 22:53:00,62.0,55.1,30.11,NW,317,0.0,0.0,78,0.00,,CLR,0.00,VWS V14.01,2013-09-06 02:53:00,
2013-09-05 22:58:00,61.8,55.2,30.11,NW,317,0.0,0.0,79,0.00,,CLR,0.00,VWS V14.01,2013-09-06 02:58:00,
2013-09-05 23:03:00,61.5,54.9,30.11,NW,317,0.0,0.0,79,0.00,,CLR,0.00,VWS V14.01,2013-09-06 03:03:00,
2013-09-05 23:08:00,61.3,55.1,30.11,NW,317,0.0,0.0,80,0.00,,CLR,0.00,VWS V14.01,2013-09-06 03:08:00,
2013-09-05 23:13:00,61.0,54.8,30.12,NW,317,0.0,0.0,80,0.00,,CLR,0.00,VWS V14.01,2013-09-06 03:13:00,
2013-09-05 23:19:00,61.0,54.8,30.12,NW,317,0.0,0.0,80,0.00,,CLR,0.00,VWS V14.01,2013-09-06 03:19:00,
2013-09-05 23:24:00,60.6,54.8,30.12,NW,317,0.0,0.0,81,0.00,,CLR,0.00,VWS V14.01,2013-09-06 03:24:00,
2013-09-05 23:29:00,60.3,54.5,30.12,NW,317,0.0,0.0,81,0.00,,CLR,0.00,VWS V14.01,2013-09-06 03:29:00,
2013-09-05 23:34:00,60.0,54.5,30.12,NW,317,0.0,0.0,82,0.00,,CLR,0.00,VWS V14.01,2013-09-06 03:34:00,
2013-09-05 23:39:00,59.8,54.6,30.12,NW,317,0.0,0.0,83,0.00,,CLR,0.00,VWS V14.01,2013-09-06 03:39:00,
2013-09-05 23:44:00,59.6,54.4,30.12,NW,317,0.0,0.0,83,0.00,,CLR,0.00,VWS V14.01,2013-09-06 03:44:00,
2013-09-05 23:49:00,59.4,54.6,30.12,NW,317,0.0,0.0,84,0.00,,CLR,0.00,VWS V14.01,2013-09-06 03:49:00,
2013-09-05 23:54:00,59.2,54.4,30.12,NW,317,0.0,0.0,84,0.00,,CLR,0.00,VWS V14.01,2013-09-06 03:54:00,
2013-09-05 23:59:00,59.0,54.5,30.12,NW,317,0.0,0.0,85,0.00,,CLR,0.00,VWS V14.01,2013-09-06 03:59:00,